createdAt,value
2023-04-26T00:00:09.242Z,96935.56
2023-04-26T00:02:37.648Z,96947.91
2023-04-26T00:05:05.243Z,96948.31
2023-04-26T00:07:35.530Z,96944.47
2023-04-26T00:10:05.029Z,96944.06
2023-04-26T00:12:33.983Z,96941.34
2023-04-26T00:15:00.748Z,96947.53
2023-04-26T00:17:27.430Z,96948.28
2023-04-26T00:19:57.612Z,96945.56
2023-04-26T00:22:27.032Z,96954.06
2023-04-26T00:24:56.139Z,96948.31
2023-04-26T00:27:22.711Z,96947.91
2023-04-26T00:29:51.487Z,96947.91
2023-04-26T00:32:18.032Z,96958.66
2023-04-26T00:34:44.579Z,96954.41
2023-04-26T00:37:16.662Z,96952.88
2023-04-26T00:39:43.308Z,96945.19
2023-04-26T00:42:12.193Z,96949.78
2023-04-26T00:44:41.728Z,96946.75
2023-04-26T00:47:13.144Z,96954.06
2023-04-26T00:49:40.742Z,96950.59
2023-04-26T00:52:09.950Z,96952.16
2023-04-26T00:54:36.594Z,96947.13
2023-04-26T00:57:03.604Z,96946.00
2023-04-26T00:59:30.599Z,96945.59
2023-04-26T01:02:00.264Z,96943.69
2023-04-26T01:04:27.678Z,96932.91
2023-04-26T01:06:56.593Z,96943.69
2023-04-26T01:09:28.144Z,96932.16
2023-04-26T01:11:58.138Z,96942.16
2023-04-26T01:14:27.544Z,96942.56
2023-04-26T01:16:59.928Z,96944.84
2023-04-26T01:19:26.516Z,96942.94
2023-04-26T01:21:55.525Z,96938.69
2023-04-26T01:24:22.064Z,96941.41
2023-04-26T01:26:48.897Z,96939.50
2023-04-26T01:29:24.302Z,96939.50
2023-04-26T01:31:51.018Z,96939.88
2023-04-26T01:34:17.666Z,96933.72
2023-04-26T01:36:44.227Z,96934.09
2023-04-26T01:39:10.810Z,96932.19
2023-04-26T01:41:37.423Z,96935.66
2023-04-26T01:44:06.774Z,96941.81
2023-04-26T01:46:38.381Z,96942.59
2023-04-26T01:49:05.210Z,96928.72
2023-04-26T01:51:32.714Z,96918.34
2023-04-26T01:54:06.684Z,96911.41
2023-04-26T01:56:35.538Z,96929.50
2023-04-26T01:59:04.612Z,96920.25
2023-04-26T02:01:35.854Z,96916.03
2023-04-26T02:04:02.690Z,96919.91
2023-04-26T02:06:32.375Z,96909.91
2023-04-26T02:08:58.928Z,96906.06
2023-04-26T02:11:28.028Z,96907.97
2023-04-26T02:13:54.735Z,96912.97
2023-04-26T02:16:21.815Z,96907.22
2023-04-26T02:18:51.054Z,96898.75
2023-04-26T02:21:21.577Z,96902.97
2023-04-26T02:23:48.431Z,96909.53
2023-04-26T02:26:15.082Z,96916.44
2023-04-26T02:28:42.126Z,96913.75
2023-04-26T02:31:09.053Z,96912.97
2023-04-26T02:33:36.063Z,96920.63
2023-04-26T02:36:06.415Z,96911.41
2023-04-26T02:38:38.842Z,96914.88
2023-04-26T02:41:07.636Z,96913.34
2023-04-26T02:43:36.482Z,96921.41
2023-04-26T02:46:03.049Z,96911.44
2023-04-26T02:48:29.644Z,96907.19
2023-04-26T02:50:58.635Z,96908.69
2023-04-26T02:53:25.276Z,96911.00
2023-04-26T02:55:54.314Z,96910.63
2023-04-26T02:58:23.100Z,96909.09
2023-04-26T03:00:49.706Z,96909.44
2023-04-26T03:03:16.777Z,96906.28
2023-04-26T03:05:43.597Z,96910.94
2023-04-26T03:08:14.798Z,96914.38
2023-04-26T03:10:44.365Z,96915.53
2023-04-26T03:13:13.424Z,96921.72
2023-04-26T03:15:44.672Z,96920.56
2023-04-26T03:18:13.751Z,96912.78
2023-04-26T03:20:43.142Z,96904.38
2023-04-26T03:23:14.508Z,96910.91
2023-04-26T03:25:43.602Z,96903.28
2023-04-26T03:28:15.043Z,96899.50
2023-04-26T03:30:41.651Z,96897.22
2023-04-26T03:33:08.297Z,96911.34
2023-04-26T03:35:34.858Z,96909.09
2023-04-26T03:38:03.919Z,96901.81
2023-04-26T03:40:30.621Z,96903.75
2023-04-26T03:42:59.374Z,96905.66
2023-04-26T03:45:28.506Z,96907.19
2023-04-26T03:47:55.165Z,96894.53
2023-04-26T03:50:24.240Z,96896.84
2023-04-26T03:52:53.142Z,96903.38
2023-04-26T03:55:19.841Z,96905.28
2023-04-26T03:57:46.415Z,96899.91
2023-04-26T04:00:14.284Z,96908.34
2023-04-26T04:02:44.256Z,96901.84
2023-04-26T04:05:13.472Z,96899.91
2023-04-26T04:07:42.890Z,96901.47
2023-04-26T04:10:11.881Z,96898.78
2023-04-26T04:12:40.804Z,96903.38
2023-04-26T04:15:10.094Z,96903.41
2023-04-26T04:17:39.091Z,96903.38
2023-04-26T04:20:08.716Z,96908.38
2023-04-26T04:22:39.848Z,96903.38
2023-04-26T04:25:13.867Z,96902.97
2023-04-26T04:27:45.459Z,96906.44
2023-04-26T04:30:12.516Z,96908.38
2023-04-26T04:32:40.174Z,96907.97
2023-04-26T04:35:07.468Z,96912.22
2023-04-26T04:37:34.884Z,96907.22
2023-04-26T04:40:01.700Z,96910.66
2023-04-26T04:42:28.373Z,96908.72
2023-04-26T04:44:55.203Z,96907.59
2023-04-26T04:47:21.780Z,96912.13
2023-04-26T04:49:48.316Z,96918.28
2023-04-26T04:52:16.810Z,96915.59
2023-04-26T04:54:44.762Z,96922.47
2023-04-26T04:57:13.956Z,96914.84
2023-04-26T04:59:42.709Z,96917.56
2023-04-26T05:02:09.363Z,96913.72
2023-04-26T05:04:36.320Z,96925.25
2023-04-26T05:07:06.725Z,96927.56
2023-04-26T05:09:33.613Z,96935.66
2023-04-26T05:12:00.169Z,96934.50
2023-04-26T05:14:27.236Z,96931.06
2023-04-26T05:16:54.602Z,96937.59
2023-04-26T05:19:26.143Z,96937.97
2023-04-26T05:21:57.206Z,96938.34
2023-04-26T05:24:23.769Z,96936.03
2023-04-26T05:26:50.345Z,96947.56
2023-04-26T05:29:17.196Z,96947.19
2023-04-26T05:31:43.820Z,96957.56
2023-04-26T05:34:12.966Z,96947.97
2023-04-26T05:36:44.211Z,96954.50
2023-04-26T05:39:13.308Z,96952.59
2023-04-26T05:41:42.418Z,96955.28
2023-04-26T05:44:13.517Z,96964.13
2023-04-26T05:46:40.360Z,96955.66
2023-04-26T05:49:07.107Z,96962.94
2023-04-26T05:51:33.751Z,96959.44
2023-04-26T05:54:02.580Z,96964.06
2023-04-26T05:56:29.188Z,96964.81
2023-04-26T05:58:58.130Z,96957.94
2023-04-26T06:01:24.711Z,96961.75
2023-04-26T06:03:51.592Z,96967.16
2023-04-26T06:06:23.816Z,96976.41
2023-04-26T06:08:50.393Z,96973.69
2023-04-26T06:11:21.787Z,96972.91
2023-04-26T06:13:51.495Z,96974.47
2023-04-26T06:16:18.399Z,96969.84
2023-04-26T06:18:45.113Z,96974.84
2023-04-26T06:21:14.091Z,96969.03
2023-04-26T06:23:40.619Z,96976.41
2023-04-26T06:26:07.203Z,96975.19
2023-04-26T06:28:33.771Z,96982.91
2023-04-26T06:31:00.361Z,96977.50
2023-04-26T06:33:29.298Z,96983.31
2023-04-26T06:36:00.638Z,96977.19
2023-04-26T06:38:29.468Z,96981.78
2023-04-26T06:40:56.798Z,96975.97
2023-04-26T06:43:23.381Z,96979.09
2023-04-26T06:45:52.004Z,96970.97
2023-04-26T06:48:18.660Z,96969.06
2023-04-26T06:50:45.256Z,96969.88
2023-04-26T06:53:14.323Z,96969.09
2023-04-26T06:55:43.204Z,96967.91
2023-04-26T06:58:09.970Z,96968.97
2023-04-26T07:00:36.540Z,96964.06
2023-04-26T07:03:03.227Z,96976.34
2023-04-26T07:05:32.113Z,96970.63
2023-04-26T07:08:00.937Z,96967.47
2023-04-26T07:10:27.886Z,96963.69
2023-04-26T07:12:54.560Z,96965.97
2023-04-26T07:15:25.880Z,96967.78
2023-04-26T07:17:54.791Z,96968.84
2023-04-26T07:20:24.293Z,96965.75
2023-04-26T07:22:53.650Z,96967.34
2023-04-26T07:25:22.596Z,96965.19
2023-04-26T07:27:52.185Z,96963.53
2023-04-26T07:30:18.724Z,96963.53
2023-04-26T07:32:53.292Z,96970.53
2023-04-26T07:35:22.998Z,96965.09
2023-04-26T07:37:49.610Z,96967.03
2023-04-26T07:40:18.835Z,96953.22
2023-04-26T07:42:45.582Z,96957.81
2023-04-26T07:45:12.499Z,96957.03
2023-04-26T07:47:43.805Z,96961.09
2023-04-26T07:50:11.271Z,96956.91
2023-04-26T07:52:38.243Z,96950.78
2023-04-26T07:55:05.444Z,96952.38
2023-04-26T07:57:32.014Z,96943.81
2023-04-26T08:00:00.894Z,96947.53
2023-04-26T08:02:43.514Z,96945.06
2023-04-26T08:05:11.848Z,96945.78
2023-04-26T08:07:38.533Z,96954.03
2023-04-26T08:10:05.716Z,96949.78
2023-04-26T08:12:34.060Z,96955.50
2023-04-26T08:15:01.499Z,96943.09
2023-04-26T08:17:28.270Z,96958.38
2023-04-26T08:19:54.844Z,96960.19
2023-04-26T08:22:21.378Z,96952.50
2023-04-26T08:24:51.320Z,96954.66
2023-04-26T08:27:19.204Z,96950.66
2023-04-26T08:29:46.519Z,96957.81
2023-04-26T08:32:15.448Z,96954.81
2023-04-26T08:34:42.006Z,96946.59
2023-04-26T08:37:11.091Z,96949.22
2023-04-26T08:39:40.594Z,96951.22
2023-04-26T08:42:15.185Z,96948.50
2023-04-26T08:44:43.782Z,96945.94
2023-04-26T08:47:19.176Z,96946.41
2023-04-26T08:49:53.654Z,96959.63
2023-04-26T08:52:23.487Z,96948.78
2023-04-26T08:54:52.009Z,96953.97
2023-04-26T08:57:18.685Z,96957.25
2023-04-26T08:59:47.975Z,96959.34
2023-04-26T09:02:19.119Z,96955.78
2023-04-26T09:04:49.051Z,96952.84
2023-04-26T09:07:30.984Z,96952.78
2023-04-26T09:10:04.168Z,96958.38
2023-04-26T09:12:30.911Z,96953.59
2023-04-26T09:15:01.122Z,96954.75
2023-04-26T09:17:31.486Z,96955.19
2023-04-26T09:20:07.830Z,96952.28
2023-04-26T09:22:36.260Z,96948.25
2023-04-26T09:25:05.499Z,96952.03
2023-04-26T09:27:37.918Z,96953.28
2023-04-26T09:30:18.560Z,96937.50
2023-04-26T09:32:46.226Z,96939.28
2023-04-26T09:35:33.828Z,96935.09
2023-04-26T09:38:14.291Z,96937.06
2023-04-26T09:40:48.323Z,96931.84
2023-04-26T09:43:21.826Z,96930.16
2023-04-26T09:45:54.753Z,96931.72
2023-04-26T09:48:34.893Z,96926.69
2023-04-26T09:51:04.488Z,96925.53
2023-04-26T09:53:37.430Z,96934.00
2023-04-26T09:56:08.446Z,96926.16
2023-04-26T09:58:37.809Z,96926.47
2023-04-26T10:01:07.887Z,96922.41
2023-04-26T10:03:37.440Z,96920.50
2023-04-26T10:06:04.810Z,96928.78
2023-04-26T10:08:33.124Z,96918.34
2023-04-26T10:11:04.286Z,96907.97
2023-04-26T10:13:35.307Z,96907.44
2023-04-26T10:16:07.056Z,96910.28
2023-04-26T10:18:36.772Z,96902.91
2023-04-26T10:21:18.548Z,96908.91
2023-04-26T10:23:48.848Z,96898.75
2023-04-26T10:26:48.575Z,96898.53
2023-04-26T10:29:15.393Z,96891.75
2023-04-26T10:32:07.017Z,96898.84
2023-04-26T10:34:36.231Z,96898.75
2023-04-26T10:37:12.306Z,96892.56
2023-04-26T10:39:42.635Z,96884.91
2023-04-26T10:42:26.665Z,96881.56
2023-04-26T10:44:56.612Z,96871.28
2023-04-26T10:47:32.342Z,96870.72
2023-04-26T10:50:10.746Z,96879.56
2023-04-26T10:52:58.507Z,96867.16
2023-04-26T10:55:41.805Z,96867.72
2023-04-26T10:58:31.698Z,96865.16
2023-04-26T11:01:11.779Z,96855.03
2023-04-26T11:03:41.296Z,96853.25
2023-04-26T11:06:09.973Z,96854.59
2023-04-26T11:08:37.121Z,96852.94
2023-04-26T11:11:03.621Z,96858.13
2023-04-26T11:13:35.958Z,96855.63
2023-04-26T11:16:10.698Z,96851.72
2023-04-26T11:18:39.816Z,96850.56
2023-04-26T11:21:09.393Z,96840.94
2023-04-26T11:23:38.927Z,96835.19
2023-04-26T11:26:09.542Z,96836.69
2023-04-26T11:28:37.808Z,96837.50
2023-04-26T11:31:09.611Z,96843.56
2023-04-26T11:33:36.282Z,96836.13
2023-04-26T11:36:03.535Z,96831.03
2023-04-26T11:38:30.401Z,96832.44
2023-04-26T11:41:03.912Z,96826.16
2023-04-26T11:43:42.732Z,96830.34
2023-04-26T11:46:13.895Z,96834.75
2023-04-26T11:48:41.259Z,96831.09
2023-04-26T11:51:08.958Z,96841.00
2023-04-26T11:53:43.034Z,96832.75
2023-04-26T11:56:18.966Z,96837.66
2023-04-26T11:58:49.870Z,96834.72
2023-04-26T12:01:25.768Z,96844.91
2023-04-26T12:04:01.654Z,96833.94
2023-04-26T12:06:45.181Z,96836.56
2023-04-26T12:09:17.615Z,96843.59
2023-04-26T12:12:06.473Z,96838.59
2023-04-26T12:14:34.188Z,96836.44
2023-04-26T12:17:03.131Z,96826.47
2023-04-26T12:19:39.555Z,96829.84
2023-04-26T12:22:07.425Z,96820.75
2023-04-26T12:24:36.605Z,96819.38
2023-04-26T12:27:04.539Z,96815.75
2023-04-26T12:29:32.091Z,96818.59
2023-04-26T12:31:59.698Z,96823.59
2023-04-26T12:34:28.896Z,96806.34
2023-04-26T12:36:57.844Z,96811.03
2023-04-26T12:39:26.871Z,96801.75
2023-04-26T12:41:53.792Z,96808.53
2023-04-26T12:44:22.093Z,96799.16
2023-04-26T12:46:49.259Z,96805.22
2023-04-26T12:49:15.835Z,96799.44
2023-04-26T12:51:42.437Z,96801.06
2023-04-26T12:54:09.255Z,96804.19
2023-04-26T12:56:43.601Z,96804.97
2023-04-26T12:59:10.398Z,96801.63
2023-04-26T13:01:37.153Z,96801.47
2023-04-26T13:04:05.977Z,96799.94
2023-04-26T13:06:33.325Z,96805.91
2023-04-26T13:08:59.994Z,96808.78
2023-04-26T13:11:26.693Z,96806.91
2023-04-26T13:13:58.038Z,96803.41
2023-04-26T13:16:24.615Z,96795.91
2023-04-26T13:18:51.718Z,96799.00
2023-04-26T13:21:18.268Z,96795.84
2023-04-26T13:23:47.457Z,96787.31
2023-04-26T13:26:15.002Z,96784.59
2023-04-26T13:28:43.764Z,96783.91
2023-04-26T13:31:13.061Z,96785.78
2023-04-26T13:33:42.641Z,96782.47
2023-04-26T13:36:15.805Z,96792.22
2023-04-26T13:38:43.140Z,96776.84
2023-04-26T13:41:12.282Z,96772.78
2023-04-26T13:43:38.997Z,96765.84
2023-04-26T13:46:08.092Z,96763.22
2023-04-26T13:48:34.680Z,96770.97
2023-04-26T13:51:01.279Z,96763.56
2023-04-26T13:53:27.854Z,96774.56
2023-04-26T13:55:54.378Z,96771.25
2023-04-26T13:58:24.004Z,96765.59
2023-04-26T14:00:50.593Z,96769.56
2023-04-26T14:03:17.358Z,96770.31
2023-04-26T14:05:44.060Z,96761.69
2023-04-26T14:08:12.739Z,96758.13
2023-04-26T14:10:42.052Z,96758.16
2023-04-26T14:13:08.608Z,96753.44
2023-04-26T14:15:35.137Z,96753.28
2023-04-26T14:18:04.187Z,96762.84
2023-04-26T14:20:33.223Z,96761.03
2023-04-26T14:23:02.364Z,96765.03
2023-04-26T14:25:28.957Z,96769.34
2023-04-26T14:27:58.972Z,96766.41
2023-04-26T14:30:27.869Z,96765.13
2023-04-26T14:32:59.474Z,96771.56
2023-04-26T14:35:26.363Z,96767.69
2023-04-26T14:37:52.939Z,96767.09
2023-04-26T14:40:19.600Z,96764.09
2023-04-26T14:42:46.354Z,96751.81
2023-04-26T14:45:15.713Z,96759.06
2023-04-26T14:47:44.677Z,96764.22
2023-04-26T14:50:13.680Z,96763.56
2023-04-26T14:52:45.582Z,96752.59
2023-04-26T14:55:18.611Z,96761.69
2023-04-26T14:57:47.947Z,96756.91
2023-04-26T15:00:20.103Z,96753.50
2023-04-26T15:02:46.846Z,96753.16
2023-04-26T15:05:13.576Z,96752.97
2023-04-26T15:07:40.570Z,96758.25
2023-04-26T15:10:11.281Z,96753.53
2023-04-26T15:12:37.850Z,96754.84
2023-04-26T15:15:04.898Z,96757.09
2023-04-26T15:17:37.077Z,96757.53
2023-04-26T15:20:06.325Z,96750.31
2023-04-26T15:22:35.317Z,96748.50
2023-04-26T15:25:06.521Z,96745.03
2023-04-26T15:27:41.145Z,96743.22
2023-04-26T15:30:12.725Z,96747.25
2023-04-26T15:32:41.441Z,96758.59
2023-04-26T15:35:15.191Z,96750.19
2023-04-26T15:37:42.031Z,96754.09
2023-04-26T15:40:10.569Z,96753.25
2023-04-26T15:42:37.716Z,96744.22
2023-04-26T15:45:07.166Z,96752.84
2023-04-26T15:47:35.628Z,96760.44
2023-04-26T15:50:08.045Z,96760.59
2023-04-26T15:52:38.567Z,96759.41
2023-04-26T15:55:11.205Z,96763.53
2023-04-26T15:57:38.067Z,96763.97
2023-04-26T16:00:08.396Z,96762.09
2023-04-26T16:02:39.605Z,96764.19
2023-04-26T16:05:08.369Z,96762.78
2023-04-26T16:07:35.202Z,96772.22
2023-04-26T16:10:04.981Z,96757.91
2023-04-26T16:12:34.118Z,96748.00
2023-04-26T16:15:05.230Z,96757.28
2023-04-26T16:17:32.029Z,96760.22
2023-04-26T16:20:01.438Z,96752.47
2023-04-26T16:22:28.548Z,96752.50
2023-04-26T16:24:57.327Z,96755.75
2023-04-26T16:27:23.948Z,96755.19
2023-04-26T16:29:50.626Z,96759.03
2023-04-26T16:32:19.594Z,96762.41
2023-04-26T16:34:48.585Z,96761.00
2023-04-26T16:37:17.414Z,96763.94
2023-04-26T16:39:43.964Z,96764.63
2023-04-26T16:42:10.644Z,96769.13
2023-04-26T16:44:37.214Z,96770.97
2023-04-26T16:47:04.034Z,96765.63
2023-04-26T16:49:32.803Z,96767.03
2023-04-26T16:51:59.317Z,96773.75
2023-04-26T16:54:26.500Z,96774.69
2023-04-26T16:56:53.425Z,96781.59
2023-04-26T16:59:20.502Z,96777.09
2023-04-26T17:01:49.480Z,96769.25
2023-04-26T17:04:18.961Z,96770.81
2023-04-26T17:06:45.953Z,96778.28
2023-04-26T17:09:13.063Z,96777.97
2023-04-26T17:11:43.529Z,96774.72
2023-04-26T17:14:10.479Z,96776.44
2023-04-26T17:16:41.968Z,96782.56
2023-04-26T17:19:10.934Z,96777.88
2023-04-26T17:21:40.614Z,96777.78
2023-04-26T17:24:09.683Z,96779.09
2023-04-26T17:26:36.641Z,96783.78
2023-04-26T17:29:05.971Z,96782.06
2023-04-26T17:31:34.852Z,96782.84
2023-04-26T17:34:05.898Z,96792.34
2023-04-26T17:36:32.441Z,96792.63
2023-04-26T17:38:59.099Z,96798.66
2023-04-26T17:41:27.965Z,96801.91
2023-04-26T17:43:54.586Z,96808.56
2023-04-26T17:46:21.393Z,96815.22
2023-04-26T17:48:50.519Z,96817.84
2023-04-26T17:51:17.286Z,96818.69
2023-04-26T17:53:43.861Z,96815.09
2023-04-26T17:56:10.602Z,96818.59
2023-04-26T17:58:37.167Z,96811.72
2023-04-26T18:01:07.304Z,96815.22
2023-04-26T18:03:36.500Z,96815.00
2023-04-26T18:06:05.977Z,96818.25
2023-04-26T18:08:37.550Z,96822.59
2023-04-26T18:11:04.299Z,96824.78
2023-04-26T18:13:30.881Z,96820.50
2023-04-26T18:16:03.379Z,96827.16
2023-04-26T18:18:32.226Z,96832.38
2023-04-26T18:20:58.768Z,96832.25
2023-04-26T18:23:27.794Z,96830.09
2023-04-26T18:25:54.961Z,96824.97
2023-04-26T18:28:22.059Z,96835.97
2023-04-26T18:30:48.629Z,96825.63
2023-04-26T18:33:17.969Z,96831.38
2023-04-26T18:35:48.774Z,96831.78
2023-04-26T18:38:24.233Z,96841.28
2023-04-26T18:40:55.449Z,96837.66
2023-04-26T18:43:26.840Z,96835.06
2023-04-26T18:45:53.562Z,96844.25
2023-04-26T18:48:22.657Z,96846.31
2023-04-26T18:50:51.996Z,96851.28
2023-04-26T18:53:23.913Z,96855.53
2023-04-26T18:55:56.321Z,96863.00
2023-04-26T18:58:22.881Z,96862.91
2023-04-26T19:00:53.517Z,96856.06
2023-04-26T19:03:22.998Z,96861.06
2023-04-26T19:05:52.299Z,96869.97
2023-04-26T19:08:27.186Z,96874.22
2023-04-26T19:10:56.647Z,96873.09
2023-04-26T19:13:23.310Z,96879.13
2023-04-26T19:15:54.414Z,96884.91
2023-04-26T19:18:23.329Z,96887.97
2023-04-26T19:20:52.123Z,96882.31
2023-04-26T19:23:21.364Z,96887.44
2023-04-26T19:25:50.266Z,96889.00
2023-04-26T19:28:20.112Z,96895.47
2023-04-26T19:30:49.025Z,96900.47
2023-04-26T19:33:17.818Z,96906.75
2023-04-26T19:35:44.416Z,96903.00
2023-04-26T19:38:16.459Z,96914.69
2023-04-26T19:40:44.220Z,96908.84
2023-04-26T19:43:11.064Z,96912.25
2023-04-26T19:45:42.498Z,96911.75
2023-04-26T19:48:09.121Z,96913.34
2023-04-26T19:50:46.371Z,96917.63
2023-04-26T19:53:15.915Z,96922.22
2023-04-26T19:55:43.023Z,96922.13
2023-04-26T19:58:13.257Z,96930.38
2023-04-26T20:00:47.612Z,96926.59
2023-04-26T20:03:16.700Z,96923.53
2023-04-26T20:05:45.764Z,96922.03
2023-04-26T20:08:12.308Z,96915.13
2023-04-26T20:10:41.754Z,96916.31
2023-04-26T20:13:10.789Z,96927.22
2023-04-26T20:15:39.509Z,96923.75
2023-04-26T20:18:06.288Z,96930.81
2023-04-26T20:20:32.979Z,96928.84
2023-04-26T20:22:59.523Z,96931.97
2023-04-26T20:25:28.438Z,96935.88
2023-04-26T20:27:57.602Z,96931.22
2023-04-26T20:30:24.250Z,96932.09
2023-04-26T20:32:53.071Z,96932.50
2023-04-26T20:35:19.844Z,96934.88
2023-04-26T20:37:48.713Z,96939.94
2023-04-26T20:40:17.798Z,96936.88
2023-04-26T20:42:46.798Z,96937.53
2023-04-26T20:45:19.259Z,96935.63
2023-04-26T20:47:47.024Z,96942.66
2023-04-26T20:50:13.640Z,96936.47
2023-04-26T20:52:40.247Z,96937.16
2023-04-26T20:55:07.460Z,96940.00
2023-04-26T20:57:34.051Z,96946.19
2023-04-26T21:00:00.733Z,96937.53
2023-04-26T21:02:32.699Z,96929.44
2023-04-26T21:04:59.376Z,96929.81
2023-04-26T21:07:26.106Z,96935.69
2023-04-26T21:09:52.637Z,96929.09
2023-04-26T21:12:19.293Z,96934.03
2023-04-26T21:14:50.437Z,96940.28
2023-04-26T21:17:17.163Z,96942.72
2023-04-26T21:19:44.589Z,96945.81
2023-04-26T21:22:14.120Z,96941.03
2023-04-26T21:24:43.137Z,96937.44
2023-04-26T21:27:09.830Z,96939.31
2023-04-26T21:29:39.438Z,96940.13
2023-04-26T21:32:11.681Z,96939.38
2023-04-26T21:34:40.479Z,96940.97
2023-04-26T21:37:07.051Z,96943.75
2023-04-26T21:39:38.097Z,96942.13
2023-04-26T21:42:07.203Z,96939.88
2023-04-26T21:44:33.797Z,96948.81
2023-04-26T21:47:00.607Z,96946.56
2023-04-26T21:49:27.297Z,96940.38
2023-04-26T21:51:53.830Z,96941.25
2023-04-26T21:54:20.418Z,96933.53
2023-04-26T21:56:49.481Z,96940.38
2023-04-26T21:59:19.724Z,96939.28
2023-04-26T22:01:46.346Z,96939.63
2023-04-26T22:04:15.571Z,96942.00
2023-04-26T22:06:42.290Z,96941.25
2023-04-26T22:09:10.246Z,96950.19
2023-04-26T22:11:42.265Z,96946.75
2023-04-26T22:14:13.632Z,96943.38
2023-04-26T22:16:40.211Z,96944.59
2023-04-26T22:19:06.918Z,96945.09
2023-04-26T22:21:33.520Z,96943.59
2023-04-26T22:24:02.375Z,96942.56
2023-04-26T22:26:29.005Z,96954.22
2023-04-26T22:28:56.034Z,96944.50
2023-04-26T22:31:25.235Z,96954.84
2023-04-26T22:33:51.819Z,96946.31
2023-04-26T22:36:20.792Z,96947.78
2023-04-26T22:38:47.310Z,96947.31
2023-04-26T22:41:16.372Z,96952.38
2023-04-26T22:43:44.676Z,96951.19
2023-04-26T22:46:11.743Z,96957.78
2023-04-26T22:48:38.410Z,96960.63
2023-04-26T22:51:09.757Z,96954.84
2023-04-26T22:53:36.301Z,96960.16
2023-04-26T22:56:07.844Z,96966.78
2023-04-26T22:58:36.628Z,96970.66
2023-04-26T23:01:05.532Z,96969.53
2023-04-26T23:03:35.796Z,96972.06
2023-04-26T23:06:06.311Z,96973.34
2023-04-26T23:08:32.867Z,96981.44
2023-04-26T23:10:59.458Z,96977.09
2023-04-26T23:13:29.564Z,96977.09
2023-04-26T23:15:58.243Z,96982.13
2023-04-26T23:18:32.086Z,96984.91
2023-04-26T23:20:58.650Z,96978.47
2023-04-26T23:23:27.733Z,96975.00
2023-04-26T23:25:54.341Z,96987.81
2023-04-26T23:28:23.083Z,96985.16
2023-04-26T23:30:49.638Z,96986.03
2023-04-26T23:33:16.682Z,96986.31
2023-04-26T23:35:45.620Z,96982.41
2023-04-26T23:38:14.598Z,96972.06
2023-04-26T23:40:41.548Z,96980.16
2023-04-26T23:43:08.277Z,96973.91
2023-04-26T23:45:34.816Z,96974.69
2023-04-26T23:48:01.918Z,96964.63
2023-04-26T23:50:30.738Z,96967.38
2023-04-26T23:52:59.576Z,96965.88
2023-04-26T23:55:28.483Z,96962.72
2023-04-26T23:57:55.025Z,96965.44
